createdAt,value
2017-07-16T00:07:29.000Z,50.6
2017-07-16T00:17:29.000Z,50.6
2017-07-16T00:27:29.000Z,50.8
2017-07-16T00:37:29.000Z,50.7
2017-07-16T00:47:29.000Z,50.5
2017-07-16T00:57:29.000Z,50.5
2017-07-16T01:07:29.000Z,50.7
2017-07-16T01:17:29.000Z,50.8
2017-07-16T01:27:29.000Z,50.5
2017-07-16T01:37:29.000Z,50.7
2017-07-16T01:47:29.000Z,50.7
2017-07-16T01:57:29.000Z,50.7
2017-07-16T02:07:29.000Z,50.7
2017-07-16T02:17:29.000Z,50.9
2017-07-16T02:27:29.000Z,51
2017-07-16T02:37:29.000Z,50.7
2017-07-16T02:47:29.000Z,50.6
2017-07-16T02:57:29.000Z,50.7
2017-07-16T03:07:29.000Z,50.1
2017-07-16T03:17:29.000Z,50.7
2017-07-16T03:27:29.000Z,50.7
2017-07-16T03:37:29.000Z,50.7
2017-07-16T03:47:29.000Z,50.6
2017-07-16T03:57:29.000Z,51.2
2017-07-16T04:07:29.000Z,51.6
2017-07-16T04:17:29.000Z,52
2017-07-16T04:27:29.000Z,52
2017-07-16T04:37:29.000Z,52.6
2017-07-16T04:47:29.000Z,53.1
2017-07-16T04:57:29.000Z,52.9
2017-07-16T05:07:30.000Z,52.9
2017-07-16T05:17:30.000Z,53.3
2017-07-16T05:27:30.000Z,53
2017-07-16T05:37:30.000Z,53.1
2017-07-16T05:47:30.000Z,53.1
2017-07-16T05:57:30.000Z,53.1
2017-07-16T06:07:30.000Z,53.2
2017-07-16T06:17:30.000Z,53.5
2017-07-16T06:27:30.000Z,53.5
2017-07-16T06:37:30.000Z,54
2017-07-16T06:47:30.000Z,54.4
2017-07-16T06:57:30.000Z,54.4
2017-07-16T07:07:30.000Z,54.7
2017-07-16T07:17:31.000Z,54.6
2017-07-16T07:27:30.000Z,55.1
2017-07-16T07:37:30.000Z,55.8
2017-07-16T07:47:30.000Z,55.9
2017-07-16T07:57:30.000Z,56.1
2017-07-16T08:07:30.000Z,55.6
2017-07-16T08:17:30.000Z,56
2017-07-16T08:27:32.000Z,56.3
2017-07-16T08:37:30.000Z,55.9
2017-07-16T08:47:31.000Z,56.7
2017-07-16T08:57:30.000Z,55.9
2017-07-16T09:07:30.000Z,56.2
2017-07-16T09:17:30.000Z,56.5
2017-07-16T09:27:30.000Z,56.8
2017-07-16T09:37:30.000Z,56.4
2017-07-16T09:47:30.000Z,56.6
2017-07-16T09:57:30.000Z,56.8
2017-07-16T10:07:30.000Z,57.3
2017-07-16T10:17:30.000Z,57.2
2017-07-16T10:27:30.000Z,57.3
2017-07-16T10:37:30.000Z,57.7
2017-07-16T10:47:30.000Z,58.2
2017-07-16T10:57:30.000Z,58.2
2017-07-16T11:07:30.000Z,57.3
2017-07-16T11:17:30.000Z,57.5
2017-07-16T11:27:30.000Z,58.7
2017-07-16T11:37:30.000Z,58.1
2017-07-16T11:47:32.000Z,58.7
2017-07-16T11:57:31.000Z,58.4
2017-07-16T12:07:31.000Z,58.6
2017-07-16T12:17:31.000Z,58.7
2017-07-16T12:27:31.000Z,58.9
2017-07-16T12:37:31.000Z,59.3
2017-07-16T12:47:31.000Z,58.6
2017-07-16T12:57:31.000Z,59.1
2017-07-16T13:07:31.000Z,59.1
2017-07-16T13:17:31.000Z,59.8
2017-07-16T13:27:31.000Z,59.6
2017-07-16T13:37:31.000Z,60.4
2017-07-16T13:47:31.000Z,61.1
2017-07-16T13:57:31.000Z,60.5
2017-07-16T14:07:31.000Z,60.8
2017-07-16T14:17:32.000Z,61.6
2017-07-16T14:27:31.000Z,62.1
2017-07-16T14:37:31.000Z,61.2
2017-07-16T14:47:31.000Z,60.9
2017-07-16T14:57:32.000Z,61
2017-07-16T15:07:31.000Z,61
2017-07-16T15:17:31.000Z,61.3
2017-07-16T15:27:31.000Z,61.3
2017-07-16T15:37:31.000Z,62.8
2017-07-16T15:47:31.000Z,62.6
2017-07-16T15:57:31.000Z,63.3
2017-07-16T16:07:31.000Z,61.9
2017-07-16T16:17:31.000Z,61.5
2017-07-16T16:27:31.000Z,63.1
2017-07-16T16:37:31.000Z,62.6
2017-07-16T16:47:31.000Z,63
2017-07-16T16:57:31.000Z,62.3
2017-07-16T17:07:31.000Z,63.3
2017-07-16T17:27:31.000Z,63.7
2017-07-16T17:37:31.000Z,64.2
2017-07-16T17:47:31.000Z,64.8
2017-07-16T17:57:31.000Z,65.6
2017-07-16T18:07:31.000Z,65.5
2017-07-16T18:17:31.000Z,66.1
2017-07-16T18:27:31.000Z,66.4
2017-07-16T18:37:31.000Z,67.8
2017-07-16T18:47:31.000Z,67.7
2017-07-16T18:57:32.000Z,67.9
2017-07-16T19:07:32.000Z,68.9
2017-07-16T19:17:32.000Z,69
2017-07-16T19:37:32.000Z,69.5
2017-07-16T19:47:32.000Z,70.2
2017-07-16T19:57:32.000Z,69.1
2017-07-16T20:07:32.000Z,69
2017-07-16T20:17:32.000Z,69.3
2017-07-16T20:27:32.000Z,68.8
2017-07-16T20:37:32.000Z,68.2
2017-07-16T20:47:32.000Z,68
2017-07-16T20:57:32.000Z,67.8
2017-07-16T21:07:32.000Z,67.4
2017-07-16T21:17:32.000Z,67.1
2017-07-16T21:27:32.000Z,66.7
2017-07-16T21:37:32.000Z,66
2017-07-16T21:47:32.000Z,65
2017-07-16T21:57:32.000Z,65.1
2017-07-16T22:07:32.000Z,65.1
2017-07-16T22:27:32.000Z,65.1
2017-07-16T22:37:32.000Z,64.6
2017-07-16T22:47:32.000Z,65.7
2017-07-16T22:57:32.000Z,66.2
2017-07-16T23:07:32.000Z,65.7
2017-07-16T23:17:32.000Z,66.6
2017-07-16T23:27:32.000Z,66
2017-07-16T23:37:32.000Z,65.9
2017-07-16T23:47:32.000Z,64.8
2017-07-16T23:57:32.000Z,66
